This is the latest recevied weather packets stored in our database for station/object K6CED. If no packets are shown the sender has not sent any weather packets the latest 1 day(s).
| Time | Temp. | Humidity | Pressure | Rain* | Wind** | Luminosity | Snow |
|---|---|---|---|---|---|---|---|
| 1778035641 | 13.89° C | 74% | 1017.7 hPa | 0 mm | - | 0 W/m² | - |
| 1778035338 | 13.89° C | 73% | 1017.4 hPa | 0 mm | - | 1 W/m² | - |
| 1778035034 | 14.44° C | 73% | 1017.5 hPa | 0 mm | - | 1 W/m² | - |
| 1778034428 | 14.44° C | 72% | 1017.2 hPa | 0 mm | - | 4 W/m² | - |
| 1778034126 | 14.44° C | 71% | 1017.3 hPa | 0 mm | - | 6 W/m² | - |
| 1778033824 | 14.44° C | 70% | 1017.1 hPa | 0 mm | - | 8 W/m² | - |
| 1778032309 | 14.44° C | 67% | 1016.9 hPa | 0 mm | - | 19 W/m² | - |
| 1778032002 | 15° C | 66% | 1016.7 hPa | 0 mm | - | 22 W/m² | - |
| 1778031395 | 15° C | 65% | 1016.5 hPa | 0 mm | - | 27 W/m² | - |
| 1778031092 | 15° C | 65% | 1016.9 hPa | 0 mm | - | 36 W/m² | - |
| 1778030788 | 15° C | 64% | 1016.6 hPa | 0 mm | - | 41 W/m² | - |
| 1778030182 | 15° C | 64% | 1016.5 hPa | 0 mm | - | 50 W/m² | - |
| 1778029878 | 15.56° C | 63% | 1016.6 hPa | 0 mm | - | 57 W/m² | - |
| 1778029577 | 15.56° C | 62% | 1016.5 hPa | 0 mm | - | 66 W/m² | - |
| 1778029274 | 15.56° C | 61% | 1016.6 hPa | 0 mm | - | 75 W/m² | - |
| 1778028971 | 15.56° C | 62% | 1016.2 hPa | 0 mm | - | 87 W/m² | - |
| 1778028667 | 15.56° C | 62% | 1016.3 hPa | 0 mm | - | 91 W/m² | - |
| 1778028364 | 16.11° C | 61% | 1016.2 hPa | 0 mm | - | 111 W/m² | - |
| 1778028061 | 16.11° C | 62% | 1016.5 hPa | 0 mm | - | 123 W/m² | - |
| 1778027757 | 16.11° C | 61% | 1016.2 hPa | 0 mm | - | 147 W/m² | - |
| 1778027453 | 16.11° C | 61% | 1016.2 hPa | 0 mm | - | 161 W/m² | - |
| 1778027149 | 16.67° C | 61% | 1016.2 hPa | 0 mm | - | 163 W/m² | - |
| 1778025634 | 17.22° C | 58% | 1016.1 hPa | 0 mm | - | 369 W/m² | - |
| 1778023212 | 16.11° C | 57% | 1016.2 hPa | 0 mm | - | 73 W/m² | - |
| 1778022909 | 16.11° C | 56% | 1016.2 hPa | 0 mm | - | 63 W/m² | - |
* Rain latest hour (hover to see other rain measurements)
** Current wind speed in m/s (hover to see current wind gust speed)